Time;durP1;ratioP1;P1;durP2;ratioP2;P2;SDS_P1;SDS_P2;PMS_P1;PMS_P2;Temp;Humidity;BMP_temperature;BMP_pressure;BME280_temperature;BME280_humidity;BME280_pressure;Samples;Min_cycle;Max_cycle;Signal;HPM_P1;HPM_P2
2023/01/11 00:02:22;;;;;;;417.58;147.32;;;;;;;10.08;88.17;99003.25;4866883;29;20426;-62
2023/01/11 00:05:12;;;;;;;380.85;145.65;;;;;;;10.31;87.53;99006.63;4869323;29;20052;-62
2023/01/11 00:07:54;;;;;;;398.25;142.80;;;;;;;10.16;88.34;99037.59;4869663;29;20053;-63
2023/01/11 00:10:44;;;;;;;385.08;144.45;;;;;;;10.19;88.54;99050.44;4872258;29;20102;-62
2023/01/11 00:13:30;;;;;;;391.30;145.45;;;;;;;10.22;87.72;99051.94;4867403;29;20751;-62
2023/01/11 00:16:20;;;;;;;390.08;141.82;;;;;;;10.26;88.46;99054.03;4854562;29;20056;-61
2023/01/11 00:19:02;;;;;;;392.50;148.38;;;;;;;10.34;88.26;99066.34;4871230;29;20052;-64
2023/01/11 00:21:55;;;;;;;402.38;146.30;;;;;;;10.38;88.18;99070.28;4870260;29;20056;-63
2023/01/11 00:24:37;;;;;;;445.23;149.07;;;;;;;10.30;87.58;99049.19;4865899;29;20049;-63
2023/01/11 00:27:26;;;;;;;423.90;147.75;;;;;;;10.19;88.74;99047.81;4869654;29;20053;-61
2023/01/11 00:30:08;;;;;;;411.60;152.25;;;;;;;10.19;88.49;99036.41;4867359;29;20055;-65
2023/01/11 00:33:05;;;;;;;420.42;150.25;;;;;;;10.41;88.48;99013.47;4866726;29;20423;-63
2023/01/11 00:36:01;;;;;;;416.95;151.57;;;;;;;10.64;87.78;98998.31;4870195;29;20128;-62
2023/01/11 00:38:42;;;;;;;442.45;155.00;;;;;;;10.45;88.06;98999.69;4869525;29;20465;-63
2023/01/11 00:47:57;;;;;;;432.40;148.45;;;;;;;10.49;87.30;98965.75;4868661;29;20481;-63
2023/01/11 00:50:38;;;;;;;428.33;151.73;;;;;;;10.31;87.33;98939.66;4872192;29;20504;-64
2023/01/11 00:53:33;;;;;;;390.52;140.40;;;;;;;10.43;87.25;98959.34;4873311;29;20148;-61
2023/01/11 00:56:08;;;;;;;401.52;142.95;;;;;;;10.27;87.45;99002.72;4874383;29;20045;-63
2023/01/11 00:58:57;;;;;;;383.73;142.40;;;;;;;10.48;87.64;99006.47;4876426;29;20537;-63
2023/01/11 01:01:46;;;;;;;406.98;142.35;;;;;;;10.39;87.24;99040.16;4875218;29;20120;-63
2023/01/11 01:04:28;;;;;;;406.10;143.27;;;;;;;10.32;87.79;99033.94;4857238;29;20132;-64
2023/01/11 01:07:18;;;;;;;404.45;141.82;;;;;;;10.20;87.70;98999.16;4874024;29;20071;-65
2023/01/11 01:10:00;;;;;;;391.45;137.95;;;;;;;10.11;87.77;98981.69;4872729;29;20520;-64
2023/01/11 01:15:57;;;;;;;374.52;137.90;;;;;;;10.17;88.20;98970.44;4878503;29;20091;-64
2023/01/11 01:18:46;;;;;;;394.52;140.18;;;;;;;10.02;87.52;98998.66;4872844;29;20112;-65
2023/01/11 01:21:42;;;;;;;356.98;137.60;;;;;;;10.15;88.70;99027.16;4843266;29;20056;-65
2023/01/11 01:24:17;;;;;;;383.30;139.93;;;;;;;10.25;88.29;99025.09;4880254;29;20052;-63
2023/01/11 01:27:16;;;;;;;407.08;144.95;;;;;;;10.13;88.32;98998.22;4872477;29;20140;-63
2023/01/11 01:29:58;;;;;;;390.38;140.88;;;;;;;10.09;88.67;99012.81;4873908;29;20049;-63
2023/01/11 01:32:47;;;;;;;372.83;138.77;;;;;;;10.19;87.89;98994.88;4877547;29;20041;-64
2023/01/11 01:35:29;;;;;;;388.38;139.00;;;;;;;10.01;87.91;98990.91;4884701;29;20520;-63
2023/01/11 01:38:18;;;;;;;396.85;138.95;;;;;;;10.01;87.53;98986.44;4873357;29;20060;-65
2023/01/11 01:41:00;;;;;;;376.30;138.82;;;;;;;10.49;87.56;98965.75;4858577;29;20045;-65
2023/01/11 01:43:59;;;;;;;359.50;135.13;;;;;;;10.20;87.83;98940.13;4889050;29;20087;-62
2023/01/11 01:46:41;;;;;;;380.77;137.70;;;;;;;10.28;87.03;98963.84;4877680;29;20056;-62
2023/01/11 01:49:30;;;;;;;377.90;137.85;;;;;;;10.09;87.58;98990.84;4875484;29;20052;-63
2023/01/11 01:52:19;;;;;;;365.52;138.23;;;;;;;10.00;88.46;98997.22;4854060;29;20116;-63
2023/01/11 01:55:15;;;;;;;361.88;137.25;;;;;;;10.09;88.22;98996.94;4872623;29;20088;-64
2023/01/11 01:58:16;;;;;;;369.15;134.32;;;;;;;10.12;87.84;98977.22;4849449;29;20056;-62
2023/01/11 02:00:51;;;;;;;;;;;;;;;10.12;87.86;99003.69;4882747;29;20531;-65
2023/01/11 02:03:47;;;;;;;344.63;127.30;;;;;;;10.19;87.73;99054.91;4872474;29;19963;-63
2023/01/11 02:06:23;;;;;;;342.98;135.85;;;;;;;10.35;87.63;99046.81;4874800;29;20049;-64
2023/01/11 02:09:29;;;;;;;337.55;129.10;;;;;;;10.23;87.50;99019.97;4875136;29;20086;-62
2023/01/11 02:12:21;;;;;;;310.02;122.80;;;;;;;10.49;87.01;98998.31;4884887;29;20612;-62
2023/01/11 02:15:11;;;;;;;319.42;123.45;;;;;;;10.27;87.14;99001.88;4886378;29;20119;-63
2023/01/11 02:18:00;;;;;;;305.35;119.38;;;;;;;10.01;87.48;99004.13;4877084;29;20049;-63
2023/01/11 02:21:19;;;;;;;325.80;119.78;;;;;;;10.02;87.50;99000.50;4891098;29;20076;-62
2023/01/11 02:24:10;;;;;;;318.23;120.20;;;;;;;9.96;88.15;99025.84;4860189;29;20049;-64
2023/01/11 02:27:30;;;;;;;306.30;114.45;;;;;;;10.12;88.00;99057.44;4870818;29;20045;-63
2023/01/11 02:30:20;;;;;;;334.05;113.00;;;;;;;9.83;87.96;99047.63;4872063;29;20056;-64
2023/01/11 02:33:30;;;;;;;305.52;115.50;;;;;;;9.93;88.00;99045.56;4872207;29;20136;-65
2023/01/11 02:36:18;;;;;;;320.52;110.72;;;;;;;9.89;88.07;99075.19;4879733;29;20061;-62
2023/01/11 02:39:21;;;;;;;291.70;111.72;;;;;;;9.91;88.33;99063.41;4871580;29;20104;-62
2023/01/11 02:46:04;;;;;;;293.25;108.80;;;;;;;9.93;87.88;98976.78;4880340;29;20056;-63
2023/01/11 02:48:39;;;;;;;301.67;107.88;;;;;;;9.77;88.79;98965.53;4869523;29;20049;-62
2023/01/11 02:51:54;;;;;;;296.02;109.45;;;;;;;9.72;88.46;98986.41;4869062;29;20160;-63
2023/01/11 02:54:32;;;;;;;279.55;111.65;;;;;;;9.80;89.00;99023.34;4867654;29;20572;-62
2023/01/11 02:57:31;;;;;;;275.65;105.95;;;;;;;9.89;88.66;99061.97;4886105;29;20124;-62
2023/01/11 03:00:08;;;;;;;288.95;110.53;;;;;;;9.97;89.17;99079.59;4890305;29;20064;-63
2023/01/11 03:03:15;;;;;;;261.63;107.25;;;;;;;10.02;88.40;99096.56;4889857;29;20053;-62
2023/01/11 03:06:04;;;;;;;271.67;106.60;;;;;;;9.95;88.22;99102.75;4883120;29;20060;-63
2023/01/11 03:09:10;;;;;;;264.67;105.47;;;;;;;9.93;88.60;99073.84;4873761;29;20385;-64
2023/01/11 03:15:40;;;;;;;239.82;105.10;;;;;;;10.14;87.97;99091.66;4885429;29;20105;-63
2023/01/11 03:18:51;;;;;;;254.45;104.00;;;;;;;10.15;87.51;99088.00;4871551;29;20612;-63
2023/01/11 03:21:44;;;;;;;;;;;;;;;9.96;88.02;99105.22;4888889;29;20095;-62
2023/01/11 03:24:44;;;;;;;234.68;98.10;;;;;;;9.90;87.64;99075.03;4874555;29;19928;-62
2023/01/11 03:27:33;;;;;;;246.50;103.07;;;;;;;9.96;87.79;99062.88;4876604;29;20492;-63
2023/01/11 03:30:50;;;;;;;235.63;101.07;;;;;;;10.25;87.27;99125.66;4883123;29;20064;-63
2023/01/11 03:33:48;;;;;;;239.90;104.63;;;;;;;10.01;86.42;99107.31;4873632;29;20051;-63
2023/01/11 03:36:32;;;;;;;224.45;100.90;;;;;;;9.95;87.04;99108.06;4872560;29;20481;-62
2023/01/11 03:39:54;;;;;;;226.82;100.10;;;;;;;10.00;87.52;99142.75;4870029;29;20092;-64
2023/01/11 03:42:33;;;;;;;218.85;97.43;;;;;;;9.88;87.53;99108.75;4864019;29;20449;-63
2023/01/11 03:45:30;;;;;;;228.18;97.88;;;;;;;9.95;87.36;99079.78;4881558;29;20398;-64
2023/01/11 03:48:09;;;;;;;235.15;99.00;;;;;;;10.11;87.45;99073.50;4852956;29;20482;-65
2023/01/11 03:51:08;;;;;;;265.42;104.82;;;;;;;10.20;86.75;99054.75;4875865;29;20052;-64
2023/01/11 03:53:47;;;;;;;239.75;100.90;;;;;;;10.25;87.00;99048.91;4862204;29;20048;-62
2023/01/11 03:56:55;;;;;;;246.25;103.85;;;;;;;10.36;86.98;99075.75;4871217;29;20053;-66
2023/01/11 03:59:31;;;;;;;217.30;95.60;;;;;;;10.14;86.64;99078.41;4871746;29;20063;-63
2023/01/11 04:02:39;;;;;;;222.93;98.20;;;;;;;10.24;86.35;99076.38;4853560;29;20686;-65
2023/01/11 04:05:14;;;;;;;210.23;98.53;;;;;;;10.45;86.20;99088.88;4870194;29;20076;-63
2023/01/11 04:08:11;;;;;;;222.82;98.03;;;;;;;10.81;85.91;99087.16;4872246;29;20417;-63
2023/01/11 04:10:46;;;;;;;222.25;99.93;;;;;;;10.55;85.72;99071.75;4880865;29;20053;-65
2023/01/11 04:13:41;;;;;;;222.73;101.88;;;;;;;10.31;86.10;99087.91;4886861;29;20481;-63
2023/01/11 04:16:16;;;;;;;248.50;104.18;;;;;;;10.29;86.83;99113.72;4871115;29;20049;-63
2023/01/11 04:19:05;;;;;;;222.57;99.10;;;;;;;10.35;86.38;99092.66;4871588;29;20060;-63
2023/01/11 04:21:54;;;;;;;217.73;96.05;;;;;;;10.34;86.27;99061.88;4852565;29;20565;-65
2023/01/11 04:24:36;;;;;;;201.35;93.05;;;;;;;10.28;86.28;99069.72;4861650;29;20064;-64
2023/01/11 04:27:25;;;;;;;212.30;95.97;;;;;;;10.38;86.67;99075.56;4889329;29;20053;-64
2023/01/11 04:30:08;;;;;;;224.27;96.28;;;;;;;10.25;86.97;99064.78;4884357;29;20037;-65
2023/01/11 04:32:57;;;;;;;229.57;97.80;;;;;;;10.18;86.49;99062.03;4855804;29;20045;-64
2023/01/11 04:35:40;;;;;;;234.15;99.97;;;;;;;10.26;86.77;99108.78;4863656;29;20075;-63
2023/01/11 04:38:30;;;;;;;227.88;102.32;;;;;;;10.28;86.99;99149.97;4872549;29;20044;-61
2023/01/11 04:44:20;;;;;;;214.35;99.10;;;;;;;10.41;86.62;99124.69;4881516;29;20496;-61
2023/01/11 04:47:02;;;;;;;212.55;97.72;;;;;;;10.28;87.05;99130.59;4878545;29;20052;-61
2023/01/11 04:49:51;;;;;;;217.82;98.28;;;;;;;10.29;87.29;99103.13;4884098;29;20064;-61
2023/01/11 04:52:33;;;;;;;211.52;93.15;;;;;;;10.40;87.06;99126.50;4881861;29;20056;-61
2023/01/11 04:55:22;;;;;;;249.77;114.15;;;;;;;10.44;86.86;99116.41;4880479;29;20481;-62
2023/01/11 04:58:04;;;;;;;225.18;103.72;;;;;;;10.38;85.88;99082.69;4864969;29;20075;-61
2023/01/11 05:00:53;;;;;;;222.10;99.28;;;;;;;10.45;85.94;99070.34;4877485;29;20128;-62
2023/01/11 05:03:35;;;;;;;223.43;99.55;;;;;;;10.61;85.52;99094.03;4867955;29;20056;-62
2023/01/11 05:06:24;;;;;;;213.43;97.90;;;;;;;10.56;86.30;99117.59;4872261;29;20116;-63
2023/01/11 05:09:13;;;;;;;227.50;101.28;;;;;;;10.59;86.03;99101.31;4875167;29;20053;-61
2023/01/11 05:12:02;;;;;;;217.13;101.22;;;;;;;10.48;86.24;99094.66;4871126;29;20055;-64
2023/01/11 05:14:58;;;;;;;219.32;103.40;;;;;;;10.65;85.51;99121.78;4873252;29;20092;-65
2023/01/11 05:17:33;;;;;;;232.55;103.15;;;;;;;10.68;85.31;99111.66;4876941;29;20124;-67
2023/01/11 05:20:23;;;;;;;240.70;103.90;;;;;;;10.69;85.37;99099.22;4877590;29;20049;-65
2023/01/11 05:23:05;;;;;;;226.23;100.35;;;;;;;10.79;85.39;99119.16;4874038;29;20056;-64
2023/01/11 05:25:54;;;;;;;219.88;102.68;;;;;;;10.89;85.32;99118.84;4872686;29;20064;-66
2023/01/11 05:28:43;;;;;;;230.30;101.82;;;;;;;10.74;84.87;99116.22;4862031;29;20048;-64
2023/01/11 05:31:25;;;;;;;220.07;101.22;;;;;;;11.06;84.89;99140.69;4854554;29;20160;-65
2023/01/11 05:34:18;;;;;;;232.93;101.95;;;;;;;11.10;84.39;99126.88;4861950;29;20049;-64
2023/01/11 05:37:07;;;;;;;254.10;102.47;;;;;;;10.89;84.40;99112.75;4871261;29;20047;-65
2023/01/11 05:39:49;;;;;;;216.25;101.10;;;;;;;10.95;84.27;99127.88;4872599;29;20048;-65
2023/01/11 05:42:44;;;;;;;234.95;105.75;;;;;;;11.09;84.35;99129.72;4865661;29;20041;-65
2023/01/11 05:45:28;;;;;;;213.13;99.40;;;;;;;11.01;84.40;99114.75;4872811;29;20109;-65
2023/01/11 05:48:17;;;;;;;209.35;99.50;;;;;;;11.16;84.00;99120.00;4875147;29;20089;-65
2023/01/11 05:51:02;;;;;;;220.93;100.97;;;;;;;11.24;83.41;99114.59;4879237;29;20037;-65
2023/01/11 05:53:52;;;;;;;241.98;115.95;;;;;;;11.16;83.76;99117.34;4878582;29;20069;-66
2023/01/11 05:56:44;;;;;;;237.50;110.32;;;;;;;11.55;83.32;99122.28;4877009;29;20056;-66
2023/01/11 05:59:27;;;;;;;230.43;106.63;;;;;;;11.40;82.97;99117.03;4864742;29;20048;-63
2023/01/11 06:02:16;;;;;;;227.88;104.63;;;;;;;11.35;82.54;99119.41;4865091;29;20802;-64
2023/01/11 06:04:59;;;;;;;230.93;103.75;;;;;;;11.42;83.54;99104.38;4871231;29;20056;-65
2023/01/11 06:07:48;;;;;;;224.00;102.43;;;;;;;11.46;83.38;99099.56;4867925;29;20053;-64
2023/01/11 06:10:45;;;;;;;214.68;102.55;;;;;;;11.71;83.28;99103.47;4873007;29;20056;-64
2023/01/11 06:13:25;;;;;;;230.63;108.68;;;;;;;11.57;82.81;99085.78;4871298;29;21054;-63
2023/01/11 06:16:23;;;;;;;239.45;105.13;;;;;;;11.70;81.37;99092.03;4883417;29;20671;-64
2023/01/11 06:18:58;;;;;;;221.98;104.25;;;;;;;11.79;81.75;99095.41;4887486;29;20116;-64
2023/01/11 06:21:47;;;;;;;232.43;107.25;;;;;;;11.68;81.68;99099.34;4869390;29;20124;-64
2023/01/11 06:24:29;;;;;;;226.23;107.63;;;;;;;11.77;81.88;99083.34;4862184;29;20053;-65
2023/01/11 06:27:24;;;;;;;219.23;104.05;;;;;;;11.96;81.61;99091.47;4850863;29;20152;-64
2023/01/11 06:30:13;;;;;;;236.60;104.68;;;;;;;12.08;80.67;99095.22;4850721;29;20076;-59
2023/01/11 06:33:09;;;;;;;215.38;101.63;;;;;;;11.99;81.07;99077.81;4839934;29;20049;-59
2023/01/11 06:35:45;;;;;;;225.70;105.15;;;;;;;12.29;81.05;99065.19;4852831;29;20053;-59
2023/01/11 06:38:41;;;;;;;221.52;108.07;;;;;;;12.33;80.33;99063.78;4853021;29;20141;-60
2023/01/11 06:41:16;;;;;;;228.77;104.35;;;;;;;12.13;80.44;99065.44;4850810;29;20060;-61
2023/01/11 06:44:05;;;;;;;223.10;108.55;;;;;;;12.13;80.45;99045.03;4853011;29;20122;-60
2023/01/11 06:46:54;;;;;;;229.95;105.90;;;;;;;12.21;80.22;99049.41;4850373;29;20680;-62
2023/01/11 06:49:36;;;;;;;224.23;103.25;;;;;;;12.16;81.13;99038.53;4854066;29;20898;-61
2023/01/11 06:52:25;;;;;;;222.20;102.50;;;;;;;12.43;80.46;99031.53;4851377;29;20137;-61
2023/01/11 06:55:07;;;;;;;219.75;105.18;;;;;;;12.26;79.93;99023.06;4839300;29;20045;-60
2023/01/11 06:57:56;;;;;;;223.68;107.50;;;;;;;12.34;80.40;99007.00;4853513;29;20137;-60
2023/01/11 07:00:38;;;;;;;233.02;109.88;;;;;;;12.52;79.41;99001.94;4855081;29;20060;-60
2023/01/11 07:03:27;;;;;;;222.77;104.15;;;;;;;12.40;79.36;98989.41;4851034;29;20304;-61
2023/01/11 07:06:09;;;;;;;233.45;109.47;;;;;;;12.55;79.37;98980.31;4852400;29;20057;-63
2023/01/11 07:08:58;;;;;;;226.38;109.50;;;;;;;12.70;78.47;98974.03;4854532;29;20057;-61
2023/01/11 07:11:40;;;;;;;219.75;106.97;;;;;;;12.70;78.52;98966.06;4852365;29;20057;-60
2023/01/11 07:14:29;;;;;;;208.50;102.68;;;;;;;12.82;78.10;98967.13;4852058;29;20482;-61
2023/01/11 07:17:11;;;;;;;226.18;106.75;;;;;;;12.90;77.86;98966.94;4851586;29;20347;-60
2023/01/11 07:20:00;;;;;;;218.32;106.20;;;;;;;12.68;78.01;98947.66;4835692;29;20062;-60
2023/01/11 07:22:42;;;;;;;196.38;101.07;;;;;;;12.77;77.68;98949.13;4850321;29;20073;-59
2023/01/11 07:25:32;;;;;;;193.25;101.65;;;;;;;12.90;77.70;98945.66;4853267;29;20483;-60
2023/01/11 07:28:14;;;;;;;200.15;98.72;;;;;;;12.78;77.77;98942.78;4851205;29;20045;-60
2023/01/11 07:31:09;;;;;;;189.48;98.45;;;;;;;12.85;77.78;98932.16;4851488;29;20113;-61
2023/01/11 07:33:44;;;;;;;199.07;102.85;;;;;;;12.92;77.19;98928.47;4850786;29;20068;-60
2023/01/11 07:36:39;;;;;;;192.45;98.88;;;;;;;12.97;77.38;98923.38;4846763;29;20064;-61
2023/01/11 07:39:14;;;;;;;199.55;99.53;;;;;;;12.95;77.58;98916.63;4852356;29;20775;-60
2023/01/11 07:45:14;;;;;;;211.07;103.88;;;;;;;12.97;77.39;98907.44;4853663;29;20081;-62
2023/01/11 07:48:09;;;;;;;212.50;105.03;;;;;;;13.25;77.15;98917.09;4853477;29;20060;-61
2023/01/11 07:50:51;;;;;;;224.02;108.90;;;;;;;12.96;76.29;98912.97;4852346;29;20129;-62
2023/01/11 07:53:46;;;;;;;195.10;103.55;;;;;;;13.29;76.59;98903.19;4838816;29;20053;-60
2023/01/11 07:56:21;;;;;;;213.75;105.43;;;;;;;13.14;76.74;98894.63;4853196;29;20138;-62
2023/01/11 07:59:10;;;;;;;210.85;106.95;;;;;;;12.89;77.31;98904.16;4855390;29;20065;-61
2023/01/11 08:01:53;;;;;;;217.95;111.47;;;;;;;12.81;77.83;98888.41;4850630;29;20128;-61
2023/01/11 08:04:48;;;;;;;207.63;106.28;;;;;;;12.94;77.99;98891.91;4852422;29;20053;-61
2023/01/11 08:07:23;;;;;;;197.20;101.22;;;;;;;12.90;77.72;98874.72;4853676;29;20092;-61
2023/01/11 08:10:20;;;;;;;194.40;97.80;;;;;;;12.92;77.44;98875.31;4834377;29;20064;-62
2023/01/11 08:16:03;;;;;;;196.73;101.03;;;;;;;12.93;77.42;98868.16;4855392;29;20124;-62
2023/01/11 08:18:52;;;;;;;192.18;101.50;;;;;;;12.97;77.43;98872.03;4855937;29;20086;-62
2023/01/11 08:21:34;;;;;;;204.23;104.93;;;;;;;13.04;77.68;98870.22;4853192;29;20124;-61
2023/01/11 08:24:23;;;;;;;211.50;108.10;;;;;;;13.19;77.39;98867.41;4856866;29;20379;-61
2023/01/11 08:27:05;;;;;;;203.55;105.07;;;;;;;13.32;76.45;98868.19;4852123;29;20049;-62
2023/01/11 08:30:00;;;;;;;221.30;107.15;;;;;;;13.20;76.63;98863.69;4855340;29;20053;-63
2023/01/11 08:32:56;;;;;;;190.95;101.53;;;;;;;13.20;76.99;98855.72;4856175;29;20154;-61
2023/01/11 08:35:37;;;;;;;193.00;103.63;;;;;;;13.12;77.09;98853.28;4854802;29;20084;-61
2023/01/11 08:38:33;;;;;;;196.75;105.47;;;;;;;13.11;76.85;98847.13;4848979;29;20779;-61
2023/01/11 08:41:13;;;;;;;198.25;105.28;;;;;;;13.19;76.32;98846.94;4853065;29;20549;-63
2023/01/11 08:44:08;;;;;;;190.05;98.57;;;;;;;13.17;76.05;98837.53;4854671;29;20065;-61
2023/01/11 08:46:45;;;;;;;200.00;105.03;;;;;;;13.23;76.56;98826.88;4861166;29;20050;-62
2023/01/11 08:49:41;;;;;;;200.45;106.03;;;;;;;13.26;75.91;98829.13;4858607;29;20846;-61
2023/01/11 08:52:17;;;;;;;203.45;107.07;;;;;;;13.33;76.31;98821.94;4858872;29;20045;-64
2023/01/11 08:55:14;;;;;;;203.88;108.25;;;;;;;13.24;76.42;98815.22;4853608;29;20057;-62
2023/01/11 08:57:49;;;;;;;194.80;108.10;;;;;;;13.50;75.94;98814.34;4858692;29;20053;-61
2023/01/11 09:00:44;;;;;;;199.50;107.70;;;;;;;13.79;74.95;98815.72;4856191;29;20117;-61
2023/01/11 09:03:19;;;;;;;194.27;107.55;;;;;;;13.64;74.66;98805.31;4857225;29;20053;-61
2023/01/11 09:06:15;;;;;;;201.25;108.95;;;;;;;13.40;75.33;98798.84;4853177;29;20053;-63
2023/01/11 09:08:50;;;;;;;203.30;110.57;;;;;;;13.47;75.79;98785.50;4853004;29;20056;-60
2023/01/11 09:11:59;;;;;;;196.77;108.15;;;;;;;13.66;75.05;98781.16;4851560;29;20050;-60
2023/01/11 09:14:49;;;;;;;194.82;105.85;;;;;;;13.58;74.55;98789.38;4854527;29;20382;-61
2023/01/11 09:17:31;;;;;;;204.35;109.30;;;;;;;13.60;75.00;98781.97;4854001;29;20788;-61
2023/01/11 09:20:21;;;;;;;202.80;108.03;;;;;;;13.59;75.27;98775.03;4855276;29;20057;-60
2023/01/11 09:23:03;;;;;;;190.05;105.10;;;;;;;13.62;75.06;98783.44;4853806;29;20053;-60
2023/01/11 09:25:52;;;;;;;180.13;100.85;;;;;;;13.87;74.46;98775.53;4853060;29;20068;-60
2023/01/11 09:28:34;;;;;;;193.80;105.30;;;;;;;13.70;74.46;98772.53;4852826;29;20045;-59
2023/01/11 09:31:30;;;;;;;194.98;104.22;;;;;;;13.76;74.86;98768.22;4864117;29;20056;-61
2023/01/11 09:34:07;;;;;;;196.65;106.68;;;;;;;13.98;74.10;98772.22;4854931;29;20047;-59
2023/01/11 09:36:58;;;;;;;185.52;105.53;;;;;;;13.92;73.37;98759.75;4855603;29;20049;-60
2023/01/11 09:39:41;;;;;;;204.35;108.18;;;;;;;14.02;74.17;98754.78;4862193;29;20170;-58
2023/01/11 09:42:42;;;;;;;189.38;107.63;;;;;;;13.98;73.62;98758.09;4857566;29;20049;-60
2023/01/11 09:45:32;;;;;;;198.65;107.15;;;;;;;13.98;73.50;98760.75;4845351;29;20144;-62
2023/01/11 09:48:51;;;;;;;184.00;105.00;;;;;;;13.97;73.86;98753.78;4852385;29;20061;-61
2023/01/11 09:51:34;;;;;;;191.45;106.88;;;;;;;14.17;73.18;98755.31;4843833;29;20045;-60
2023/01/11 09:54:26;;;;;;;200.40;104.95;;;;;;;14.18;73.63;98746.28;4836386;29;20060;-61
2023/01/11 09:57:29;;;;;;;198.15;105.43;;;;;;;14.14;73.22;98731.75;4859190;29;20053;-62
2023/01/11 10:00:39;;;;;;;180.90;101.32;;;;;;;14.19;73.05;98734.59;4856792;29;20058;-60
2023/01/11 10:03:50;;;;;;;186.93;106.18;;;;;;;14.13;73.02;98731.97;4836863;29;20168;-59
2023/01/11 10:07:32;;;;;;;182.88;103.43;;;;;;;14.45;72.47;98725.66;4856361;29;20053;-61
2023/01/11 10:10:49;;;;;;;198.13;107.28;;;;;;;14.21;72.86;98737.03;4834027;29;20064;-61
2023/01/11 10:14:06;;;;;;;189.05;104.22;;;;;;;14.30;73.15;98741.91;4863675;29;20041;-60
2023/01/11 10:17:54;;;;;;;196.32;108.78;;;;;;;14.34;72.13;98731.63;4843899;29;20050;-60
2023/01/11 10:20:54;;;;;;;200.35;107.88;;;;;;;14.54;71.85;98726.19;4841146;29;20054;-60
2023/01/11 10:24:10;;;;;;;198.25;107.15;;;;;;;14.48;71.91;98717.22;4853525;29;20064;-62
2023/01/11 10:26:49;;;;;;;184.00;104.05;;;;;;;14.48;71.97;98714.53;4855557;29;20057;-61
2023/01/11 10:30:11;;;;;;;179.30;100.85;;;;;;;14.24;73.12;98731.31;4851975;29;20069;-63
2023/01/11 10:40:39;;;;;;;183.73;101.32;;;;;;;14.08;73.67;98729.94;4817954;29;20144;-58
2023/01/11 10:43:38;;;;;;;179.35;101.88;;;;;;;14.06;73.96;98732.03;4837324;29;20045;-60
2023/01/11 10:46:32;;;;;;;186.25;103.40;;;;;;;14.08;74.11;98734.47;4850796;29;20151;-63
2023/01/11 10:49:24;;;;;;;174.32;100.78;;;;;;;14.03;74.63;98724.44;4839018;29;20140;-61
2023/01/11 10:52:39;;;;;;;168.80;100.35;;;;;;;14.09;74.16;98720.13;4848561;29;20057;-59
2023/01/11 10:55:30;;;;;;;175.02;96.47;;;;;;;14.23;73.29;98737.66;4852225;29;20053;-60
2023/01/11 10:58:49;;;;;;;179.05;98.60;;;;;;;14.21;73.76;98745.84;4862023;29;20064;-61
2023/01/11 11:02:01;;;;;;;174.00;98.38;;;;;;;14.09;74.20;98750.22;4845072;29;20121;-63
2023/01/11 11:05:06;;;;;;;169.13;95.82;;;;;;;14.10;74.54;98745.72;4838444;29;20512;-61
2023/01/11 11:08:17;;;;;;;166.07;95.55;;;;;;;14.07;73.98;98741.66;4852480;29;20048;-62
2023/01/11 11:11:05;;;;;;;173.13;97.15;;;;;;;13.94;74.72;98741.69;4849132;29;20057;-61
2023/01/11 11:14:20;;;;;;;172.75;96.05;;;;;;;14.06;74.54;98744.53;4847726;29;20117;-62
2023/01/11 11:17:36;;;;;;;176.73;100.10;;;;;;;13.94;74.79;98742.53;4850196;29;20057;-61
2023/01/11 11:20:30;;;;;;;167.75;94.57;;;;;;;13.93;75.68;98748.06;4846918;29;20902;-61
2023/01/11 11:23:24;;;;;;;165.73;96.78;;;;;;;13.98;74.80;98753.59;4847738;29;20057;-59
2023/01/11 11:26:20;;;;;;;176.52;99.10;;;;;;;14.12;74.25;98748.97;4852318;29;20050;-60
2023/01/11 11:29:01;;;;;;;171.43;96.85;;;;;;;14.17;74.02;98749.16;4852617;29;20061;-60
2023/01/11 11:31:57;;;;;;;181.20;102.55;;;;;;;13.96;74.66;98752.97;4849901;29;20056;-61
2023/01/11 11:34:32;;;;;;;174.00;95.55;;;;;;;13.74;75.29;98756.97;4862359;29;20133;-62
2023/01/11 11:37:26;;;;;;;172.68;97.15;;;;;;;13.59;76.75;98759.88;4853650;29;20506;-60
2023/01/11 11:40:35;;;;;;;166.75;94.43;;;;;;;13.98;75.67;98755.44;4867147;29;20049;-61
2023/01/11 11:43:26;;;;;;;165.98;96.63;;;;;;;14.14;75.08;98758.41;4854851;29;20690;-61
2023/01/11 11:46:18;;;;;;;162.98;92.32;;;;;;;13.88;75.51;98766.53;4854282;29;20691;-61
2023/01/11 11:49:16;;;;;;;170.05;92.53;;;;;;;13.89;76.25;98786.81;4856497;29;20092;-60
2023/01/11 11:51:59;;;;;;;158.02;90.15;;;;;;;13.78;76.26;98785.59;4857095;29;20145;-61
2023/01/11 11:54:58;;;;;;;153.13;88.43;;;;;;;13.54;77.36;98780.19;4854828;29;20052;-60
2023/01/11 11:57:47;;;;;;;157.05;91.07;;;;;;;13.46;78.01;98790.00;4857373;29;20057;-62
2023/01/11 12:00:54;;;;;;;149.00;86.88;;;;;;;13.65;77.33;98796.31;4856448;29;20057;-68
2023/01/11 12:03:32;;;;;;;157.48;84.65;;;;;;;13.58;77.87;98798.19;4853501;29;20058;-62
2023/01/11 12:06:24;;;;;;;149.57;87.70;;;;;;;13.50;78.21;98812.50;4859314;29;20118;-62
2023/01/11 12:09:09;;;;;;;151.73;86.00;;;;;;;13.44;78.59;98818.69;4856677;29;20625;-61
2023/01/11 12:12:05;;;;;;;145.90;81.88;;;;;;;13.33;79.24;98823.78;4870564;29;20065;-60
2023/01/11 12:14:40;;;;;;;152.50;85.15;;;;;;;13.05;80.26;98824.00;4844801;29;20044;-61
2023/01/11 12:17:36;;;;;;;155.90;86.47;;;;;;;13.17;80.25;98822.41;4871108;29;20586;-60
2023/01/11 12:20:27;;;;;;;150.30;83.68;;;;;;;13.10;80.44;98823.41;4862947;29;20052;-60
2023/01/11 12:23:28;;;;;;;150.95;85.00;;;;;;;12.94;80.84;98829.94;4846130;29;20080;-59
2023/01/11 12:26:18;;;;;;;148.00;84.97;;;;;;;12.90;81.21;98837.50;4847122;29;20037;-65
2023/01/11 12:29:35;;;;;;;167.55;87.95;;;;;;;12.86;81.94;98830.97;4864263;29;20048;-64
2023/01/11 12:32:45;;;;;;;161.05;89.40;;;;;;;12.99;81.01;98833.63;4838508;29;20050;-66
2023/01/11 12:35:39;;;;;;;169.98;92.00;;;;;;;12.89;82.00;98832.38;4843272;29;20488;-64
2023/01/11 12:38:44;;;;;;;172.55;91.97;;;;;;;12.91;81.90;98835.66;4837512;29;20162;-58
2023/01/11 12:41:19;;;;;;;177.63;94.65;;;;;;;12.85;81.95;98839.94;4836306;29;20062;-62
2023/01/11 12:44:23;;;;;;;182.55;98.65;;;;;;;13.17;81.20;98846.31;4495148;29;9999721;-63
2023/01/11 12:47:42;;;;;;;188.82;99.20;;;;;;;13.20;80.79;98853.06;4501929;29;10000845;-60
2023/01/11 12:50:44;;;;;;;190.85;98.85;;;;;;;13.71;78.96;98853.22;4841065;29;20125;-62
2023/01/11 12:53:25;;;;;;;186.55;99.13;;;;;;;13.52;78.79;98859.38;4816081;29;20057;-57
2023/01/11 12:57:03;;;;;;;188.10;99.55;;;;;;;13.79;79.06;98867.09;4837093;29;20057;-60
2023/01/11 13:00:15;;;;;;;188.35;98.28;;;;;;;13.69;78.84;98860.56;4832878;29;20111;-59
2023/01/11 13:03:28;;;;;;;194.35;102.30;;;;;;;13.50;79.18;98868.38;4828725;29;20442;-61
2023/01/11 13:06:20;;;;;;;215.05;104.15;;;;;;;13.10;80.70;98865.94;4831384;29;20583;-61
2023/01/11 13:09:44;;;;;;;199.25;102.70;;;;;;;13.15;80.64;98861.66;4830771;29;20046;-62
2023/01/11 13:12:41;;;;;;;196.70;101.72;;;;;;;13.21;80.45;98858.19;4841538;29;20049;-63
2023/01/11 13:15:50;;;;;;;195.32;101.20;;;;;;;12.99;81.01;98864.69;4833654;29;20565;-59
2023/01/11 13:18:42;;;;;;;206.05;104.32;;;;;;;13.00;81.76;98859.19;4835479;29;20060;-58
2023/01/11 13:21:43;;;;;;;204.65;107.35;;;;;;;12.78;81.88;98863.06;4835878;29;20050;-61
2023/01/11 13:24:36;;;;;;;224.82;111.45;;;;;;;12.78;82.27;98859.56;4840084;29;20054;-59
2023/01/11 13:27:22;;;;;;;218.68;111.00;;;;;;;12.75;82.55;98859.97;4845954;29;20495;-61
2023/01/11 13:30:23;;;;;;;237.35;115.82;;;;;;;12.80;82.44;98844.22;4846517;29;20057;-61